Current Weather

Doha Intl Airport

Doha Intl Airport, Qatar (OTBD)

Report from: Wednesday, September 28, 2022 1:00 PM +03
Current time: Wednesday, September 28, 2022 1:34 PM +03

Nearby weather
Weather history
Weather forecast

Temperature37.0°C (98.6°F)
Heat index37.0°C (98.6°F)
Dew point15.0°C (59.0°F)
Winds 15 kts (7.7 m/s, 17.3 mph) Vrb
Winds variableWinds variable from Northeast (50°) to North (350°)
Clouds Sky clear
Altimeter29.68 in.Hg (1005 mB)
Relative humidity27 %
Density altitude2,998 ft. (914 m)
Remarks Ceiling and visibility OK
No significant changes expected in the next two hours
Flight conditions Visual Meteorological Conditions
Raw dataOTBD 281000Z 01015KT 350V050 CAVOK 37/15 Q1005 NOSIG
An error has occurred. This application may no longer respond until reloaded. Reload 🗙